VIAR/ATQ METAR and TAF weather

Enter ICAO airport designator
Station Type Date Time Source
VIAR METAR 2021/06/24 06:00 UTC NOAA

VIAR 240600Z 07016KT 4000 HZ SCT030 FEW035CB SCT090 30/16 Q1004 TEMPO 05020G30KT 2000 TSRA


Station Type Date Time Source
VIAR Decoded METAR 2021/06/24 06:00 UTC NOAA

Amritsar, India (VIAR) 31-38N 074-52E 234M
Jun 24, 2021 - 02:00 AM EDT / 2021.06.24 0600 UTC
Wind: from the ENE (070 degrees) at 18 MPH (16 KT):0
Visibility: 2 mile(s):0
Sky conditions: partly cloudy
Weather: haze; Cumulonimbus clouds observed
Temperature: 86 F (30 C)
Dew Point: 60 F (16 C)
Relative Humidity: 42%
Pressure (altimeter): 29.65 in. Hg (1004 hPa)
ob: VIAR 240600Z 07016KT 4000 HZ SCT030 FEW035CB SCT090 30/16 Q1004 TEMPO 05020G30KT 2000 TSRA
cycle: 6

Station Type Date Time Source
VIAR TAF 2021/06/24 06:24 UTC NOAA

TAF VIAR 240500Z 2406/2512 07016KT 3000 HZ SCT030 FEW035CB SCT090
TEMPO 2408/2410 36025G40KT 1500 TSRA SCT030 FEW035CB SCT090
BECMG 2412/2414 15010KT 3000 HZ FEW040 SCT090
BECMG 2500/2502 15004KT 3000 HZ FEW100
BECMG 2508/2510 15006KT 4000 HZ SCT100

Example: see airport list